Time;durP1;ratioP1;P1;durP2;ratioP2;P2;SDS_P1;SDS_P2;PMS_P1;PMS_P2;Temp;Humidity;BMP_temperature;BMP_pressure;BME280_temperature;BME280_humidity;BME280_pressure;Samples;Min_cycle;Max_cycle;Signal;HPM_P1;HPM_P2
2021/07/24 00:01:11;;;;;;;11.30;8.47;;;;;;;;;;4971612;28;20521;-50
2021/07/24 00:03:38;;;;;;;14.20;9.50;;;;;;;;;;4972119;28;20421;-50
2021/07/24 00:06:04;;;;;;;11.20;8.67;;;;;;;;;;4972231;28;20465;-49
2021/07/24 00:08:30;;;;;;;12.80;8.57;;;;;;;;;;4972171;28;20893;-49
2021/07/24 00:10:56;;;;;;;9.53;8.53;;;;;;;;;;4974721;28;20578;-50
2021/07/24 00:13:22;;;;;;;13.53;8.53;;;;;;;;;;4979896;28;20930;-50
2021/07/24 00:15:48;;;;;;;11.70;9.10;;;;;;;;;;4984314;28;20384;-50
2021/07/24 00:18:14;;;;;;;10.17;8.33;;;;;;;;;;4981305;28;20440;-49
2021/07/24 00:20:40;;;;;;;12.47;8.40;;;;;;;;;;4975787;28;20433;-49
2021/07/24 00:23:11;;;;;;;10.33;9.10;;;;;;;;;;4988745;28;20979;-49
2021/07/24 00:25:37;;;;;;;9.47;8.50;;;;;;;;;;4978555;28;20482;-50
2021/07/24 00:28:03;;;;;;;10.47;8.87;;;;;;;;;;4975194;28;20415;-50
2021/07/24 00:30:29;;;;;;;11.10;9.40;;;;;;;;;;4973958;28;20541;-50
2021/07/24 00:32:55;;;;;;;13.50;8.43;;;;;;;;;;4987702;28;20902;-49
2021/07/24 00:35:21;;;;;;;10.20;9.10;;;;;;;;;;4980301;28;20736;-50
2021/07/24 00:37:47;;;;;;;14.70;10.07;;;;;;;;;;4980714;28;20763;-50
2021/07/24 00:40:16;;;;;;;10.07;8.90;;;;;;;;;;4986748;28;20408;-50
2021/07/24 00:42:49;;;;;;;12.43;10.43;;;;;;;;;;4975633;28;20417;-50
2021/07/24 00:45:16;;;;;;;12.97;11.00;;;;;;;;;;4990201;28;20844;-49
2021/07/24 00:47:43;;;;;;;11.83;8.67;;;;;;;;;;4998793;28;20425;-49
2021/07/24 00:50:13;;;;;;;14.27;9.60;;;;;;;;;;5010545;28;20816;-50
2021/07/24 00:52:42;;;;;;;15.30;8.70;;;;;;;;;;5011729;28;20420;-49
2021/07/24 00:55:09;;;;;;;13.00;9.93;;;;;;;;;;5011407;28;20414;-50
2021/07/24 00:57:36;;;;;;;12.67;10.07;;;;;;;;;;5003873;28;20408;-49
2021/07/24 01:00:03;;;;;;;17.17;10.30;;;;;;;;;;4991753;28;20446;-51
2021/07/24 01:02:29;;;;;;;10.03;8.90;;;;;;;;;;4990222;28;20772;-50
2021/07/24 01:04:55;;;;;;;16.63;10.50;;;;;;;;;;4990905;28;20379;-52
2021/07/24 01:07:21;;;;;;;18.50;10.20;;;;;;;;;;4989695;28;20464;-52
2021/07/24 01:09:47;;;;;;;12.70;8.53;;;;;;;;;;4971899;28;20389;-50
2021/07/24 01:12:13;;;;;;;11.50;9.60;;;;;;;;;;4971363;28;20380;-49
2021/07/24 01:14:39;;;;;;;12.07;9.00;;;;;;;;;;4971867;28;20834;-49
2021/07/24 01:17:05;;;;;;;11.83;8.93;;;;;;;;;;4986881;28;20595;-50
2021/07/24 01:19:31;;;;;;;12.33;9.33;;;;;;;;;;5010775;28;20458;-50
2021/07/24 01:21:57;;;;;;;11.37;9.77;;;;;;;;;;5010416;28;20531;-50
2021/07/24 01:24:24;;;;;;;11.67;10.27;;;;;;;;;;5010442;28;20386;-49
2021/07/24 01:26:50;;;;;;;12.27;9.70;;;;;;;;;;5010620;28;20512;-50
2021/07/24 01:29:16;;;;;;;17.70;10.47;;;;;;;;;;5010502;28;20891;-49
2021/07/24 01:31:42;;;;;;;13.90;10.93;;;;;;;;;;5010292;28;20406;-50
2021/07/24 01:34:09;;;;;;;15.40;10.87;;;;;;;;;;5010466;28;20478;-50
2021/07/24 01:36:35;;;;;;;12.83;9.97;;;;;;;;;;5010431;28;20411;-49
2021/07/24 01:39:01;;;;;;;13.53;10.27;;;;;;;;;;5010656;28;20762;-50
2021/07/24 01:41:27;;;;;;;16.30;10.43;;;;;;;;;;5010582;28;20765;-50
2021/07/24 01:43:53;;;;;;;12.37;9.40;;;;;;;;;;5010423;28;20377;-50
2021/07/24 01:46:19;;;;;;;16.40;9.60;;;;;;;;;;5010455;28;20439;-50
2021/07/24 01:53:59;;;;;;;13.10;10.27;;;;;;;;;;5010720;28;20676;-50
2021/07/24 01:56:28;;;;;;;11.37;9.93;;;;;;;;;;5010634;28;20467;-50
2021/07/24 01:58:54;;;;;;;18.27;11.07;;;;;;;;;;4983521;28;20383;-50
2021/07/24 02:01:21;;;;;;;13.27;10.80;;;;;;;;;;4972307;28;20401;-49
2021/07/24 02:03:49;;;;;;;14.90;11.70;;;;;;;;;;4982856;28;20423;-50
2021/07/24 02:06:17;;;;;;;13.10;10.20;;;;;;;;;;4975334;28;21188;-51
2021/07/24 02:08:47;;;;;;;14.77;10.33;;;;;;;;;;4986528;28;20413;-50
2021/07/24 02:11:13;;;;;;;13.20;11.17;;;;;;;;;;4978739;28;20421;-50
2021/07/24 02:13:39;;;;;;;17.90;11.00;;;;;;;;;;4980878;28;20444;-49
2021/07/24 02:16:06;;;;;;;16.40;10.80;;;;;;;;;;4985266;28;20390;-50
2021/07/24 02:18:33;;;;;;;13.63;10.70;;;;;;;;;;4988071;28;20444;-50
2021/07/24 02:20:59;;;;;;;12.93;10.53;;;;;;;;;;4977913;28;20441;-50
2021/07/24 02:23:25;;;;;;;15.77;11.13;;;;;;;;;;4990603;28;20803;-50
2021/07/24 02:25:51;;;;;;;16.93;12.63;;;;;;;;;;4981985;28;20426;-50
2021/07/24 02:28:17;;;;;;;6.77;5.97;;;;;;;;;;4983684;28;20414;-50
2021/07/24 02:30:43;;;;;;;145.03;27.83;;;;;;;;;;4988548;28;20484;-50
2021/07/24 02:33:09;;;;;;;17.10;11.60;;;;;;;;;;4978068;28;20882;-51
2021/07/24 02:35:35;;;;;;;13.80;10.90;;;;;;;;;;4989150;28;20375;-50
2021/07/24 02:38:01;;;;;;;16.90;12.50;;;;;;;;;;4983407;28;20415;-50
2021/07/24 02:40:27;;;;;;;14.60;11.30;;;;;;;;;;4981876;28;20788;-49
2021/07/24 02:42:54;;;;;;;14.43;11.20;;;;;;;;;;4989990;28;20419;-50
2021/07/24 02:45:20;;;;;;;189.30;19.70;;;;;;;;;;4974980;28;20484;-50
2021/07/24 02:47:46;;;;;;;18.93;12.63;;;;;;;;;;4974597;28;20374;-49
2021/07/24 02:50:12;;;;;;;14.83;12.10;;;;;;;;;;4974556;28;20553;-49
2021/07/24 02:52:38;;;;;;;15.03;13.17;;;;;;;;;;4974353;28;20430;-50
2021/07/24 02:55:05;;;;;;;21.07;12.27;;;;;;;;;;4974680;28;20423;-50
2021/07/24 02:57:31;;;;;;;18.50;12.37;;;;;;;;;;4974469;28;20495;-50
2021/07/24 02:59:57;;;;;;;145.20;41.90;;;;;;;;;;4974362;28;20484;-50
2021/07/24 03:02:23;;;;;;;16.70;12.63;;;;;;;;;;4980918;28;20426;-50
2021/07/24 03:04:49;;;;;;;15.10;12.70;;;;;;;;;;4994050;28;20390;-50
2021/07/24 03:07:15;;;;;;;16.10;12.53;;;;;;;;;;4993613;28;20430;-50
2021/07/24 03:09:41;;;;;;;24.23;12.60;;;;;;;;;;4993713;28;20382;-50
2021/07/24 03:12:07;;;;;;;15.50;12.50;;;;;;;;;;4993353;28;20371;-50
2021/07/24 03:14:33;;;;;;;16.77;13.20;;;;;;;;;;4993630;28;20404;-50
2021/07/24 03:16:59;;;;;;;15.20;12.30;;;;;;;;;;4993689;28;20387;-50
2021/07/24 03:19:25;;;;;;;17.80;13.63;;;;;;;;;;4989752;28;20957;-50
2021/07/24 03:21:51;;;;;;;19.17;12.67;;;;;;;;;;4973775;28;20516;-50
2021/07/24 03:24:17;;;;;;;15.73;12.83;;;;;;;;;;4973996;28;20499;-50
2021/07/24 03:26:43;;;;;;;15.67;12.10;;;;;;;;;;4976450;28;20482;-50
2021/07/24 03:29:10;;;;;;;18.70;13.43;;;;;;;;;;4987151;28;20409;-50
2021/07/24 03:31:36;;;;;;;16.63;12.10;;;;;;;;;;4974000;28;20420;-50
2021/07/24 03:34:02;;;;;;;16.20;13.27;;;;;;;;;;4973949;28;20442;-50
2021/07/24 03:36:28;;;;;;;16.93;11.80;;;;;;;;;;4973965;28;20432;-51
2021/07/24 03:38:54;;;;;;;21.03;13.30;;;;;;;;;;4973845;28;20912;-50
2021/07/24 03:41:20;;;;;;;16.47;12.17;;;;;;;;;;4973621;28;20908;-50
2021/07/24 03:43:46;;;;;;;17.20;14.07;;;;;;;;;;4973640;28;20381;-49
2021/07/24 03:46:16;;;;;;;17.13;14.07;;;;;;;;;;4973726;28;20800;-49
2021/07/24 03:48:43;;;;;;;17.70;13.93;;;;;;;;;;4973694;28;20405;-50
2021/07/24 03:51:09;;;;;;;23.33;14.63;;;;;;;;;;4973239;28;20925;-49
2021/07/24 03:53:35;;;;;;;24.20;13.30;;;;;;;;;;4973365;28;20484;-49
2021/07/24 03:56:01;;;;;;;20.90;13.10;;;;;;;;;;4973557;28;20990;-49
2021/07/24 03:58:27;;;;;;;18.53;13.17;;;;;;;;;;4974270;28;20452;-52
2021/07/24 04:00:53;;;;;;;14.13;12.63;;;;;;;;;;4973123;28;20513;-51
2021/07/24 04:03:24;;;;;;;17.20;13.77;;;;;;;;;;4973393;28;20928;-51
2021/07/24 04:05:52;;;;;;;25.93;13.40;;;;;;;;;;4973149;28;20434;-49
2021/07/24 04:08:18;;;;;;;20.80;13.53;;;;;;;;;;4973303;28;20423;-50
2021/07/24 04:10:44;;;;;;;18.07;13.97;;;;;;;;;;4972788;28;20955;-51
2021/07/24 04:13:11;;;;;;;17.90;13.20;;;;;;;;;;4973131;28;20391;-50
2021/07/24 04:15:37;;;;;;;20.50;14.77;;;;;;;;;;4972978;28;20388;-48
2021/07/24 04:18:04;;;;;;;21.80;13.40;;;;;;;;;;4973130;28;20423;-52
2021/07/24 04:20:30;;;;;;;18.43;13.57;;;;;;;;;;4972692;28;20512;-49
2021/07/24 04:22:56;;;;;;;16.83;12.50;;;;;;;;;;4972935;28;20409;-48
2021/07/24 04:25:22;;;;;;;16.17;13.27;;;;;;;;;;4972706;28;20446;-49
2021/07/24 04:27:48;;;;;;;18.70;14.37;;;;;;;;;;4972911;28;20405;-49
2021/07/24 04:30:14;;;;;;;15.77;13.10;;;;;;;;;;4972224;28;20450;-50
2021/07/24 04:32:40;;;;;;;18.13;13.20;;;;;;;;;;4972173;28;20382;-49
2021/07/24 04:35:06;;;;;;;14.30;12.63;;;;;;;;;;4972693;28;20379;-51
2021/07/24 04:37:32;;;;;;;13.67;12.27;;;;;;;;;;4972662;28;20894;-48
2021/07/24 04:39:58;;;;;;;21.73;13.13;;;;;;;;;;4972544;28;20406;-50
2021/07/24 04:42:24;;;;;;;20.00;14.03;;;;;;;;;;4972299;28;20380;-51
2021/07/24 04:44:50;;;;;;;16.53;13.20;;;;;;;;;;4972774;28;20463;-52
2021/07/24 04:47:16;;;;;;;16.80;13.33;;;;;;;;;;4972314;28;20836;-50
2021/07/24 04:49:49;;;;;;;15.33;13.30;;;;;;;;;;4972291;28;20442;-50
2021/07/24 04:52:15;;;;;;;16.63;13.33;;;;;;;;;;4972149;28;20436;-49
2021/07/24 04:54:42;;;;;;;19.47;14.17;;;;;;;;;;4972470;28;20401;-49
2021/07/24 04:57:08;;;;;;;19.67;13.93;;;;;;;;;;4972304;28;20835;-52
2021/07/24 04:59:36;;;;;;;19.80;14.07;;;;;;;;;;4972312;28;20502;-52
2021/07/24 05:02:02;;;;;;;17.73;14.27;;;;;;;;;;4972031;28;20411;-51
2021/07/24 05:04:28;;;;;;;17.80;13.43;;;;;;;;;;4972307;28;20797;-51
2021/07/24 05:06:56;;;;;;;18.60;14.70;;;;;;;;;;4972019;28;20461;-52
2021/07/24 05:09:22;;;;;;;21.30;16.03;;;;;;;;;;4972477;28;20485;-49
2021/07/24 05:11:48;;;;;;;17.53;13.53;;;;;;;;;;4971868;28;20479;-51
2021/07/24 05:14:14;;;;;;;18.47;14.70;;;;;;;;;;4972352;28;20490;-48
2021/07/24 05:16:40;;;;;;;21.43;15.50;;;;;;;;;;4972202;28;21137;-48
2021/07/24 05:19:07;;;;;;;17.90;14.47;;;;;;;;;;4971964;28;20410;-48
2021/07/24 05:21:34;;;;;;;30.30;16.40;;;;;;;;;;4971791;28;20431;-49
2021/07/24 05:24:00;;;;;;;18.40;14.23;;;;;;;;;;4971948;28;20920;-49
2021/07/24 05:26:26;;;;;;;19.70;12.13;;;;;;;;;;4972204;28;20464;-49
2021/07/24 05:28:52;;;;;;;15.73;12.83;;;;;;;;;;4972039;28;20491;-49
2021/07/24 05:31:18;;;;;;;16.40;14.53;;;;;;;;;;4971830;28;20934;-49
2021/07/24 05:33:45;;;;;;;23.40;15.90;;;;;;;;;;4971891;28;20409;-48
2021/07/24 05:36:11;;;;;;;19.43;12.90;;;;;;;;;;4971935;28;20415;-49
2021/07/24 05:38:38;;;;;;;16.67;13.17;;;;;;;;;;4971848;28;20414;-49
2021/07/24 05:41:04;;;;;;;18.17;13.70;;;;;;;;;;4971694;28;20436;-51
2021/07/24 05:43:30;;;;;;;29.17;21.40;;;;;;;;;;4974473;28;20914;-51
2021/07/24 05:45:56;;;;;;;16.70;13.27;;;;;;;;;;4975827;28;20506;-52
2021/07/24 05:48:22;;;;;;;19.80;17.00;;;;;;;;;;4975703;28;20402;-52
2021/07/24 05:50:47;;;;;;;17.17;14.07;;;;;;;;;;4975424;28;20529;-50
2021/07/24 05:53:13;;;;;;;19.97;14.53;;;;;;;;;;4975613;28;20405;-52
2021/07/24 05:55:39;;;;;;;18.23;12.73;;;;;;;;;;4975764;28;20471;-49
2021/07/24 05:58:08;;;;;;;20.50;13.27;;;;;;;;;;4975095;28;20412;-48
2021/07/24 06:00:34;;;;;;;16.80;12.40;;;;;;;;;;4974521;28;20511;-49
2021/07/24 06:03:00;;;;;;;14.30;11.30;;;;;;;;;;4974931;28;20492;-50
2021/07/24 06:05:26;;;;;;;20.97;11.77;;;;;;;;;;4974543;28;20460;-51
2021/07/24 06:07:52;;;;;;;16.13;13.37;;;;;;;;;;4974953;28;20449;-52
2021/07/24 06:10:18;;;;;;;15.50;11.53;;;;;;;;;;4974462;28;20476;-50
2021/07/24 06:12:47;;;;;;;15.70;12.30;;;;;;;;;;4974762;28;20425;-52
2021/07/24 06:15:13;;;;;;;14.10;12.20;;;;;;;;;;4974531;28;20405;-49
2021/07/24 06:17:39;;;;;;;14.17;11.67;;;;;;;;;;4974663;28;20432;-50
2021/07/24 06:20:05;;;;;;;15.33;12.20;;;;;;;;;;4974511;28;20476;-48
2021/07/24 06:22:31;;;;;;;14.47;12.90;;;;;;;;;;4974309;28;20451;-51
2021/07/24 06:24:57;;;;;;;12.67;11.27;;;;;;;;;;4974574;28;20398;-52
2021/07/24 06:27:23;;;;;;;14.33;11.37;;;;;;;;;;4974397;28;20485;-49
2021/07/24 06:29:49;;;;;;;11.97;10.33;;;;;;;;;;4974499;28;20397;-49
2021/07/24 06:32:15;;;;;;;14.90;11.37;;;;;;;;;;4974052;28;20407;-49
2021/07/24 06:34:41;;;;;;;11.93;9.90;;;;;;;;;;4974311;28;20449;-48
2021/07/24 06:37:07;;;;;;;11.40;10.20;;;;;;;;;;4974472;28;20413;-49
2021/07/24 06:39:33;;;;;;;11.73;9.40;;;;;;;;;;4974172;28;20499;-48
2021/07/24 06:41:59;;;;;;;14.47;10.60;;;;;;;;;;4974117;28;20405;-49
2021/07/24 06:44:27;;;;;;;14.30;10.00;;;;;;;;;;4974148;28;20407;-49
2021/07/24 06:46:53;;;;;;;13.70;9.60;;;;;;;;;;4973977;28;20529;-50
2021/07/24 06:49:20;;;;;;;13.13;10.03;;;;;;;;;;4974267;28;20810;-50
2021/07/24 06:51:45;;;;;;;17.37;10.27;;;;;;;;;;4973890;28;20444;-49
2021/07/24 06:54:11;;;;;;;11.17;10.00;;;;;;;;;;4986971;28;20470;-49
2021/07/24 06:56:37;;;;;;;14.00;11.60;;;;;;;;;;4993749;28;20407;-49
2021/07/24 06:59:03;;;;;;;13.03;10.70;;;;;;;;;;4994044;28;20396;-49
2021/07/24 07:01:29;;;;;;;14.47;10.00;;;;;;;;;;4993326;28;20431;-50
2021/07/24 07:03:55;;;;;;;14.00;10.60;;;;;;;;;;4993898;28;20407;-50
2021/07/24 07:06:21;;;;;;;11.43;9.40;;;;;;;;;;4993685;28;20467;-53
2021/07/24 07:08:47;;;;;;;11.67;9.80;;;;;;;;;;4993918;28;20444;-52
2021/07/24 07:11:13;;;;;;;10.67;9.20;;;;;;;;;;4993678;28;20424;-48
2021/07/24 07:13:39;;;;;;;9.97;8.97;;;;;;;;;;4993644;28;20408;-49
2021/07/24 07:16:06;;;;;;;11.40;9.97;;;;;;;;;;4993737;28;20412;-51
2021/07/24 07:18:32;;;;;;;12.77;10.07;;;;;;;;;;4993891;28;20555;-49
2021/07/24 07:20:58;;;;;;;13.03;9.13;;;;;;;;;;4993637;28;20428;-49
2021/07/24 07:23:24;;;;;;;12.83;9.43;;;;;;;;;;4993646;28;20400;-49
2021/07/24 07:25:50;;;;;;;10.73;8.97;;;;;;;;;;4993843;28;20550;-49
2021/07/24 07:28:16;;;;;;;12.43;8.80;;;;;;;;;;4993462;28;20401;-49
2021/07/24 07:30:42;;;;;;;11.00;9.30;;;;;;;;;;4993216;28;20451;-48
2021/07/24 07:33:08;;;;;;;12.20;9.70;;;;;;;;;;4993266;28;20432;-49
2021/07/24 07:35:34;;;;;;;9.03;8.13;;;;;;;;;;4993569;28;20400;-49
2021/07/24 07:38:00;;;;;;;11.20;9.13;;;;;;;;;;4993299;28;20897;-51
2021/07/24 07:40:26;;;;;;;12.13;9.47;;;;;;;;;;4993080;28;20424;-50
2021/07/24 07:42:52;;;;;;;13.63;12.10;;;;;;;;;;4993069;28;20408;-51
2021/07/24 07:45:18;;;;;;;10.03;9.03;;;;;;;;;;4993036;28;20407;-52
2021/07/24 07:47:44;;;;;;;11.23;9.67;;;;;;;;;;4993153;28;20969;-50
2021/07/24 07:50:11;;;;;;;9.40;8.50;;;;;;;;;;4992764;28;20445;-53
2021/07/24 07:52:37;;;;;;;9.60;8.57;;;;;;;;;;4992848;28;20416;-50
2021/07/24 07:55:03;;;;;;;10.70;9.40;;;;;;;;;;4992913;28;20418;-51
2021/07/24 07:57:29;;;;;;;8.83;8.03;;;;;;;;;;4992950;28;20401;-49
2021/07/24 07:59:56;;;;;;;9.13;8.23;;;;;;;;;;4992528;28;20525;-49
2021/07/24 08:02:22;;;;;;;9.87;8.83;;;;;;;;;;4992661;28;20419;-49
2021/07/24 08:04:49;;;;;;;12.83;9.90;;;;;;;;;;4992646;28;20407;-49
2021/07/24 08:07:16;;;;;;;8.93;8.10;;;;;;;;;;4992691;28;20518;-50
2021/07/24 08:09:41;;;;;;;10.23;8.57;;;;;;;;;;4992527;28;20404;-50
2021/07/24 08:12:07;;;;;;;14.53;10.20;;;;;;;;;;4992438;28;20426;-50
2021/07/24 08:14:33;;;;;;;9.50;8.53;;;;;;;;;;4992406;28;20503;-52
2021/07/24 08:16:59;;;;;;;12.57;9.10;;;;;;;;;;4992603;28;20408;-52
2021/07/24 08:19:26;;;;;;;11.67;8.80;;;;;;;;;;4991891;28;20412;-49
2021/07/24 08:21:52;;;;;;;9.13;7.77;;;;;;;;;;4992186;28;20424;-50
2021/07/24 08:24:18;;;;;;;9.27;7.17;;;;;;;;;;4992186;28;20412;-50
2021/07/24 08:26:44;;;;;;;7.70;6.90;;;;;;;;;;4992188;28;20459;-50
2021/07/24 08:29:10;;;;;;;8.77;7.37;;;;;;;;;;4992190;28;20408;-52
2021/07/24 08:31:36;;;;;;;8.80;7.30;;;;;;;;;;4991861;28;20478;-52
2021/07/24 08:34:02;;;;;;;15.50;7.10;;;;;;;;;;4992185;28;20483;-52
2021/07/24 08:36:28;;;;;;;8.63;7.30;;;;;;;;;;4992163;28;20173;-53
2021/07/24 08:38:54;;;;;;;7.87;7.17;;;;;;;;;;4992145;28;21052;-50
2021/07/24 08:41:20;;;;;;;16.40;7.93;;;;;;;;;;4991737;28;20196;-53
2021/07/24 08:43:47;;;;;;;7.90;7.20;;;;;;;;;;4991926;28;20777;-50
2021/07/24 08:46:13;;;;;;;8.90;8.00;;;;;;;;;;4991861;28;20251;-53
2021/07/24 08:48:40;;;;;;;8.67;7.87;;;;;;;;;;4991988;28;20400;-52
2021/07/24 08:51:06;;;;;;;9.00;8.10;;;;;;;;;;4991435;28;20439;-51
2021/07/24 08:53:33;;;;;;;9.60;7.93;;;;;;;;;;4991828;28;20440;-50
2021/07/24 08:56:05;;;;;;;10.03;7.73;;;;;;;;;;4991813;28;20412;-50
2021/07/24 08:58:34;;;;;;;14.23;7.50;;;;;;;;;;4991884;28;20404;-50
2021/07/24 09:01:01;;;;;;;9.60;8.13;;;;;;;;;;4991491;28;20933;-52
2021/07/24 09:03:28;;;;;;;15.37;8.40;;;;;;;;;;4987742;28;20419;-49
2021/07/24 09:05:54;;;;;;;11.80;6.90;;;;;;;;;;4989477;28;20459;-52
2021/07/24 09:08:21;;;;;;;11.90;7.67;;;;;;;;;;4991354;28;20405;-52
2021/07/24 09:10:50;;;;;;;43.67;18.03;;;;;;;;;;4991057;28;20451;-51
2021/07/24 09:13:17;;;;;;;7.77;7.07;;;;;;;;;;4991443;28;20407;-51
2021/07/24 09:15:43;;;;;;;61.57;9.47;;;;;;;;;;4991637;28;20404;-51
2021/07/24 09:18:09;;;;;;;9.00;8.10;;;;;;;;;;4990910;28;20444;-51
2021/07/24 09:20:35;;;;;;;8.60;7.80;;;;;;;;;;4991462;28;20427;-52
2021/07/24 09:23:20;;;;;;;8.43;7.73;;;;;;;;;;4991540;28;20762;-52
2021/07/24 09:25:46;;;;;;;11.27;7.53;;;;;;;;;;4991456;28;20458;-51
2021/07/24 09:28:12;;;;;;;8.63;7.83;;;;;;;;;;4990939;28;20428;-51
2021/07/24 09:30:39;;;;;;;9.03;8.13;;;;;;;;;;4991293;28;20192;-51
2021/07/24 09:33:12;;;;;;;8.40;7.60;;;;;;;;;;4990962;28;20406;-51
2021/07/24 09:35:47;;;;;;;11.60;8.43;;;;;;;;;;4990913;28;20415;-52
2021/07/24 09:38:13;;;;;;;17.33;10.97;;;;;;;;;;4989689;28;20878;-51
2021/07/24 09:40:40;;;;;;;9.90;8.40;;;;;;;;;;4991040;28;20432;-51
2021/07/24 09:43:26;;;;;;;10.70;8.57;;;;;;;;;;4990981;28;20553;-51
2021/07/24 09:46:10;;;;;;;9.67;7.40;;;;;;;;;;4991100;28;20952;-51
2021/07/24 09:48:37;;;;;;;9.30;8.43;;;;;;;;;;4991114;28;20905;-51
2021/07/24 09:51:03;;;;;;;8.80;8.00;;;;;;;;;;4990872;28;20454;-51
2021/07/24 09:53:36;;;;;;;11.07;8.90;;;;;;;;;;4990987;28;20486;-51
2021/07/24 09:56:02;;;;;;;23.33;13.10;;;;;;;;;;4991149;28;21021;-51
2021/07/24 09:58:28;;;;;;;15.13;11.90;;;;;;;;;;4991390;28;20400;-51
2021/07/24 10:01:07;;;;;;;15.33;9.23;;;;;;;;;;4990837;28;20424;-51
2021/07/24 10:03:38;;;;;;;10.93;9.00;;;;;;;;;;4991009;28;20834;-51
2021/07/24 10:06:14;;;;;;;11.23;8.90;;;;;;;;;;4991155;28;20535;-51
2021/07/24 10:08:40;;;;;;;9.30;8.50;;;;;;;;;;4988587;28;20478;-51
2021/07/24 10:11:07;;;;;;;11.10;9.50;;;;;;;;;;4990586;28;21074;-51
2021/07/24 10:13:33;;;;;;;9.30;8.40;;;;;;;;;;4991032;28;20522;-50
2021/07/24 10:16:00;;;;;;;12.97;11.67;;;;;;;;;;4991031;28;20490;-51
2021/07/24 10:18:26;;;;;;;11.70;9.33;;;;;;;;;;4990943;28;20982;-51
2021/07/24 10:20:52;;;;;;;10.60;9.00;;;;;;;;;;4998158;28;20767;-51
2021/07/24 10:23:21;;;;;;;13.50;9.80;;;;;;;;;;5010252;28;20877;-51
2021/07/24 10:25:47;;;;;;;10.00;9.10;;;;;;;;;;5010093;28;20458;-50
2021/07/24 10:28:14;;;;;;;11.00;9.23;;;;;;;;;;5010974;28;20790;-51
2021/07/24 10:30:41;;;;;;;9.50;8.70;;;;;;;;;;5013770;28;20184;-50
2021/07/24 10:33:08;;;;;;;13.97;11.10;;;;;;;;;;5014118;28;20915;-50
2021/07/24 10:35:38;;;;;;;27.10;10.77;;;;;;;;;;5013900;28;20440;-50
2021/07/24 10:38:22;;;;;;;11.40;9.57;;;;;;;;;;5013938;28;20403;-50
2021/07/24 10:40:48;;;;;;;14.20;12.70;;;;;;;;;;5013469;28;20473;-51
2021/07/24 10:43:34;;;;;;;11.00;9.87;;;;;;;;;;5013732;28;20407;-51
2021/07/24 10:46:00;;;;;;;13.37;9.40;;;;;;;;;;5013510;28;20465;-51
2021/07/24 10:48:27;;;;;;;17.63;11.57;;;;;;;;;;5013264;28;20403;-50
2021/07/24 10:50:53;;;;;;;15.50;11.13;;;;;;;;;;5011736;28;21035;-50
2021/07/24 10:53:21;;;;;;;21.07;13.40;;;;;;;;;;5013203;28;20403;-50
2021/07/24 10:55:47;;;;;;;16.17;11.20;;;;;;;;;;5012888;28;20418;-50
2021/07/24 10:58:14;;;;;;;17.40;11.00;;;;;;;;;;5012172;28;20766;-50
2021/07/24 11:00:50;;;;;;;22.50;12.40;;;;;;;;;;5013473;28;20458;-50
2021/07/24 11:03:32;;;;;;;13.40;11.73;;;;;;;;;;5013366;28;20403;-51
2021/07/24 11:05:58;;;;;;;14.40;12.40;;;;;;;;;;5013577;28;20463;-50
2021/07/24 11:08:42;;;;;;;14.83;11.73;;;;;;;;;;5013316;28;20395;-50
2021/07/24 11:11:09;;;;;;;16.33;11.27;;;;;;;;;;5013091;28;20441;-50
2021/07/24 11:13:47;;;;;;;14.77;10.90;;;;;;;;;;5013050;28;20885;-52
2021/07/24 11:16:13;;;;;;;13.73;11.37;;;;;;;;;;4975884;28;20409;-50
2021/07/24 11:18:39;;;;;;;11.97;10.67;;;;;;;;;;4989490;28;20405;-50
2021/07/24 11:21:05;;;;;;;13.07;11.20;;;;;;;;;;4973811;28;20423;-50
2021/07/24 11:23:31;;;;;;;12.43;10.50;;;;;;;;;;4981080;28;20450;-50
2021/07/24 11:26:02;;;;;;;15.90;10.83;;;;;;;;;;4987049;28;20459;-49
2021/07/24 11:28:28;;;;;;;13.43;11.50;;;;;;;;;;4981988;28;20826;-50
2021/07/24 11:30:58;;;;;;;16.83;10.80;;;;;;;;;;4978891;28;20584;-51
2021/07/24 11:33:27;;;;;;;13.23;11.17;;;;;;;;;;4978674;28;20425;-49
2021/07/24 11:35:58;;;;;;;18.23;12.50;;;;;;;;;;4974058;28;20401;-50
2021/07/24 11:38:24;;;;;;;15.70;11.10;;;;;;;;;;4974065;28;20428;-50
2021/07/24 11:40:57;;;;;;;15.00;11.87;;;;;;;;;;4986737;28;20427;-50
2021/07/24 11:43:25;;;;;;;17.27;12.87;;;;;;;;;;4982255;28;20417;-50
2021/07/24 11:45:57;;;;;;;15.77;11.90;;;;;;;;;;4978436;28;20620;-51
2021/07/24 11:48:23;;;;;;;11.47;10.30;;;;;;;;;;4986508;28;20408;-50
2021/07/24 11:50:59;;;;;;;15.70;11.17;;;;;;;;;;4992651;28;20925;-51
2021/07/24 11:53:25;;;;;;;13.67;11.37;;;;;;;;;;4992506;28;20388;-50
2021/07/24 11:55:51;;;;;;;19.63;11.33;;;;;;;;;;4991104;28;20408;-49
2021/07/24 11:58:17;;;;;;;23.50;12.17;;;;;;;;;;4991516;28;20415;-50
2021/07/24 12:00:44;;;;;;;12.77;11.43;;;;;;;;;;4990879;28;20427;-51
2021/07/24 12:03:26;;;;;;;12.37;11.10;;;;;;;;;;4990976;28;20408;-50
2021/07/24 12:06:02;;;;;;;13.60;10.60;;;;;;;;;;4990654;28;20522;-50
2021/07/24 12:08:29;;;;;;;15.27;10.83;;;;;;;;;;4990969;28;20936;-51
2021/07/24 12:10:55;;;;;;;13.00;11.53;;;;;;;;;;4992264;28;20415;-50
2021/07/24 12:13:22;;;;;;;12.37;10.40;;;;;;;;;;4991865;28;20412;-50
2021/07/24 12:15:55;;;;;;;12.40;11.20;;;;;;;;;;4992508;28;20415;-50
2021/07/24 12:18:21;;;;;;;15.63;11.43;;;;;;;;;;4992462;28;20407;-50
2021/07/24 12:20:49;;;;;;;13.60;11.67;;;;;;;;;;4992191;28;20432;-50
2021/07/24 12:23:21;;;;;;;12.30;10.77;;;;;;;;;;4992455;28;20404;-50
2021/07/24 12:26:08;;;;;;;15.80;11.13;;;;;;;;;;4992239;28;20459;-50
2021/07/24 12:28:34;;;;;;;17.23;12.33;;;;;;;;;;4982473;28;20415;-50
2021/07/24 12:31:19;;;;;;;12.87;11.67;;;;;;;;;;4992689;28;20450;-50
2021/07/24 12:33:46;;;;;;;14.80;12.80;;;;;;;;;;4992502;28;20797;-50
2021/07/24 12:36:12;;;;;;;21.30;12.30;;;;;;;;;;4992571;28;20435;-50
2021/07/24 12:38:38;;;;;;;14.87;12.60;;;;;;;;;;4992330;28;20973;-50
2021/07/24 12:41:05;;;;;;;15.30;12.10;;;;;;;;;;4991959;28;20510;-50
2021/07/24 12:43:32;;;;;;;20.80;12.60;;;;;;;;;;4991970;28;20408;-51
2021/07/24 12:46:13;;;;;;;20.80;13.13;;;;;;;;;;4991582;28;21002;-49
2021/07/24 12:48:47;;;;;;;13.63;11.60;;;;;;;;;;4992160;28;20407;-51
2021/07/24 12:51:14;;;;;;;16.53;13.83;;;;;;;;;;4991261;28;20526;-50
2021/07/24 12:53:41;;;;;;;24.20;13.80;;;;;;;;;;4990674;28;20890;-50
2021/07/24 12:56:07;;;;;;;14.53;11.67;;;;;;;;;;4992013;28;20447;-50
2021/07/24 12:58:34;;;;;;;15.47;12.17;;;;;;;;;;4991223;28;20436;-50
2021/07/24 13:01:17;;;;;;;18.60;13.27;;;;;;;;;;4991021;28;20468;-50
2021/07/24 13:03:43;;;;;;;19.43;12.60;;;;;;;;;;4991601;28;20491;-50
2021/07/24 13:06:11;;;;;;;13.93;12.57;;;;;;;;;;4991553;28;20452;-50
2021/07/24 13:08:37;;;;;;;16.13;13.47;;;;;;;;;;4991682;28;20411;-50
2021/07/24 13:11:04;;;;;;;15.43;13.57;;;;;;;;;;4991437;28;20424;-50
2021/07/24 13:13:30;;;;;;;16.43;13.50;;;;;;;;;;4991368;28;20491;-50
2021/07/24 13:15:56;;;;;;;17.33;14.07;;;;;;;;;;4991629;28;20764;-50
2021/07/24 13:18:21;;;;;;;13.40;11.60;;;;;;;;;;4991129;28;20399;-49
2021/07/24 13:20:47;;;;;;;18.70;13.63;;;;;;;;;;4991137;28;20435;-50
2021/07/24 13:23:13;;;;;;;19.47;13.53;;;;;;;;;;4991382;28;20418;-49
2021/07/24 13:28:14;;;;;;;20.43;13.40;;;;;;;;;;4991415;28;20919;-50
2021/07/24 13:30:58;;;;;;;19.10;14.83;;;;;;;;;;4991108;28;20431;-49
2021/07/24 13:33:24;;;;;;;18.23;14.33;;;;;;;;;;4991302;28;20431;-49
2021/07/24 13:35:50;;;;;;;15.20;13.00;;;;;;;;;;4991222;28;20780;-49
2021/07/24 13:38:16;;;;;;;18.20;15.30;;;;;;;;;;4991365;28;20404;-49
2021/07/24 13:40:42;;;;;;;16.30;13.77;;;;;;;;;;4991005;28;20442;-49
2021/07/24 13:43:08;;;;;;;17.63;15.67;;;;;;;;;;4991211;28;20404;-49
2021/07/24 13:45:35;;;;;;;21.43;15.17;;;;;;;;;;4991067;28;20896;-49
2021/07/24 13:48:02;;;;;;;17.77;15.23;;;;;;;;;;4991274;28;20487;-49
2021/07/24 13:50:28;;;;;;;20.70;16.30;;;;;;;;;;4990705;28;20440;-49
2021/07/24 13:52:54;;;;;;;23.83;16.10;;;;;;;;;;4991087;28;20772;-49
2021/07/24 13:55:20;;;;;;;18.43;15.07;;;;;;;;;;4991126;28;20400;-49
2021/07/24 13:57:46;;;;;;;20.17;16.70;;;;;;;;;;4991151;28;20404;-49
2021/07/24 14:00:12;;;;;;;22.07;16.97;;;;;;;;;;4990959;28;20464;-49
2021/07/24 14:02:38;;;;;;;19.97;17.00;;;;;;;;;;4990954;28;20412;-49
2021/07/24 14:05:05;;;;;;;22.17;16.53;;;;;;;;;;4994806;28;20885;-49
2021/07/24 14:07:35;;;;;;;19.50;17.40;;;;;;;;;;4994965;28;20454;-49
2021/07/24 14:10:01;;;;;;;24.17;18.60;;;;;;;;;;4995161;28;20526;-49
2021/07/24 14:12:27;;;;;;;23.57;18.57;;;;;;;;;;4994891;28;20411;-48
2021/07/24 14:14:55;;;;;;;23.33;18.63;;;;;;;;;;4995187;28;20408;-49
2021/07/24 14:17:21;;;;;;;25.97;18.97;;;;;;;;;;4995077;28;20419;-49
2021/07/24 14:19:47;;;;;;;25.90;19.37;;;;;;;;;;4994866;28;20457;-49
2021/07/24 14:22:13;;;;;;;24.67;21.67;;;;;;;;;;4994554;28;20411;-49
2021/07/24 14:24:39;;;;;;;34.87;21.10;;;;;;;;;;4994698;28;20413;-49
2021/07/24 14:27:05;;;;;;;29.07;20.10;;;;;;;;;;4994437;28;20473;-49
2021/07/24 14:29:31;;;;;;;28.50;20.80;;;;;;;;;;4994599;28;20401;-49
2021/07/24 14:31:58;;;;;;;31.40;21.10;;;;;;;;;;4994128;28;20984;-49